Time;durP1;ratioP1;P1;durP2;ratioP2;P2;SDS_P1;SDS_P2;PMS_P1;PMS_P2;Temp;Humidity;BMP_temperature;BMP_pressure;BME280_temperature;BME280_humidity;BME280_pressure;Samples;Min_cycle;Max_cycle;Signal;HPM_P1;HPM_P2
2023/07/29 00:00:15;;;;;;;;;;;;;;;23.79;48.53;100573.03;7396899;19;1579;-41
2023/07/29 00:02:44;;;;;;;;;;;;;;;23.98;48.25;100561.88;7396934;19;1855;-41
2023/07/29 00:05:12;;;;;;;;;;;;;;;23.90;48.00;100559.19;7396733;19;1456;-41
2023/07/29 00:07:43;;;;;;;;;;;;;;;24.01;48.07;100553.44;7396860;19;1546;-41
2023/07/29 00:10:11;;;;;;;;;;;;;;;23.86;47.96;100567.81;7395922;19;1571;-41
2023/07/29 00:12:39;;;;;;;;;;;;;;;23.93;47.69;100566.94;7397780;19;1154;-41
2023/07/29 00:15:08;;;;;;;;;;;;;;;23.93;48.05;100575.03;7396009;19;1555;-41
2023/07/29 00:17:37;;;;;;;;;;;;;;;23.90;48.06;100569.16;7396904;19;1158;-41
2023/07/29 00:20:05;;;;;;;;;;;;;;;23.91;48.16;100562.72;7395250;19;1426;-41
2023/07/29 00:22:34;;;;;;;;;;;;;;;23.86;48.36;100581.31;7396302;19;1565;-41
2023/07/29 00:25:05;;;;;;;;;;;;;;;23.95;48.01;100570.28;7394127;19;1853;-41
2023/07/29 00:27:33;;;;;;;;;;;;;;;23.88;47.89;100560.38;7395168;19;1302;-41
2023/07/29 00:30:01;;;;;;;;;;;;;;;23.83;47.57;100558.19;7395622;19;1288;-41
2023/07/29 00:32:30;;;;;;;;;;;;;;;23.75;47.93;100564.41;7396851;19;1157;-41
2023/07/29 00:35:00;;;;;;;;;;;;;;;23.74;48.13;100560.03;7396017;19;1426;-41
2023/07/29 00:37:28;;;;;;;;;;;;;;;23.73;48.25;100563.75;7394616;19;1549;-41
2023/07/29 00:39:57;;;;;;;;;;;;;;;23.64;48.23;100564.78;7396023;19;1430;-42
2023/07/29 00:42:28;;;;;;;;;;;;;;;23.59;48.41;100557.19;7394899;19;1561;-41
2023/07/29 00:44:57;;;;;;;;;;;;;;;23.58;48.76;100562.78;7395283;19;1841;-41
2023/07/29 00:47:27;;;;;;;;;;;;;;;23.58;48.33;100565.47;7397764;19;1503;-41
2023/07/29 00:49:56;;;;;;;;;;;;;;;23.55;48.71;100560.41;7394062;19;1534;-41
2023/07/29 00:52:24;;;;;;;;;;;;;;;23.52;48.97;100553.50;7396784;19;1406;-41
2023/07/29 00:54:52;;;;;;;;;;;;;;;23.51;48.60;100564.47;7396462;19;1314;-41
2023/07/29 00:57:22;;;;;;;;;;;;;;;23.49;48.74;100563.78;7396147;19;1517;-41
2023/07/29 00:59:53;;;;;;;;;;;;;;;23.45;48.83;100554.34;7395260;19;1165;-41
2023/07/29 01:02:21;;;;;;;;;;;;;;;23.50;48.64;100554.69;7395773;19;1249;-41
2023/07/29 01:04:54;;;;;;;;;;;;;;;23.42;49.16;100553.66;7394409;19;1845;-41
2023/07/29 01:07:26;;;;;;;;;;;;;;;23.47;48.74;100557.72;7395592;19;1191;-41
2023/07/29 01:09:58;;;;;;;;;;;;;;;23.44;49.15;100567.00;7395980;19;1453;-41
2023/07/29 01:12:29;;;;;;;;;;;;;;;23.48;49.00;100564.81;7397328;19;1166;-41
2023/07/29 01:15:03;;;;;;;;;;;;;;;23.44;49.17;100588.59;7395182;19;1252;-41
2023/07/29 01:17:35;;;;;;;;;;;;;;;23.48;48.80;100567.50;7395767;19;1538;-41
2023/07/29 01:20:07;;;;;;;;;;;;;;;23.58;48.56;100563.59;7393801;19;1462;-41
2023/07/29 01:22:37;;;;;;;;;;;;;;;23.61;48.37;100557.84;7394654;19;1482;-41
2023/07/29 01:25:08;;;;;;;;;;;;;;;23.63;48.05;100574.75;7393882;19;1857;-41
2023/07/29 01:27:36;;;;;;;;;;;;;;;23.54;48.49;100580.31;7396272;19;1230;-41
2023/07/29 01:30:06;;;;;;;;;;;;;;;23.45;48.88;100560.56;7395681;19;1434;-41
2023/07/29 01:32:37;;;;;;;;;;;;;;;23.48;48.76;100570.22;7397851;19;1241;-41
2023/07/29 01:35:10;;;;;;;;;;;;;;;23.44;48.48;100564.31;7396274;19;1213;-41
2023/07/29 01:37:40;;;;;;;;;;;;;;;23.40;48.42;100569.19;7395857;19;1459;-41
2023/07/29 01:40:12;;;;;;;;;;;;;;;23.41;48.54;100576.25;7395524;19;1476;-41
2023/07/29 01:42:40;;;;;;;;;;;;;;;23.36;48.59;100573.25;7396544;19;1286;-41
2023/07/29 01:45:09;;;;;;;;;;;;;;;23.38;48.62;100581.19;7394059;19;1845;-41
2023/07/29 01:47:40;;;;;;;;;;;;;;;23.33;49.27;100578.97;7394230;19;1239;-41
2023/07/29 01:50:09;;;;;;;;;;;;;;;23.38;48.64;100587.41;7392415;19;1598;-41
2023/07/29 01:52:38;;;;;;;;;;;;;;;23.37;48.86;100585.72;7395849;19;1456;-41
2023/07/29 01:55:06;;;;;;;;;;;;;;;23.30;48.89;100565.81;7396592;19;1283;-50
2023/07/29 01:57:37;;;;;;;;;;;;;;;23.31;48.69;100577.44;7403086;19;1214;-41
2023/07/29 02:00:06;;;;;;;;;;;;;;;23.26;48.75;100577.97;7401780;19;1468;-41
2023/07/29 02:02:34;;;;;;;;;;;;;;;23.35;48.82;100571.53;7401263;19;1295;-41
2023/07/29 02:05:02;;;;;;;;;;;;;;;23.34;48.71;100575.28;7397864;19;1837;-41
2023/07/29 02:07:31;;;;;;;;;;;;;;;23.36;48.78;100565.16;7400719;19;1477;-41
2023/07/29 02:09:59;;;;;;;;;;;;;;;23.28;48.83;100566.97;7401036;19;1457;-41
2023/07/29 02:12:27;;;;;;;;;;;;;;;23.31;48.53;100569.34;7402668;19;1187;-42
2023/07/29 02:14:58;;;;;;;;;;;;;;;23.29;48.76;100553.34;7401660;19;1454;-41
2023/07/29 02:17:26;;;;;;;;;;;;;;;23.22;48.95;100563.13;7401720;19;1542;-41
2023/07/29 02:19:55;;;;;;;;;;;;;;;23.26;48.82;100572.56;7399201;19;1220;-41
2023/07/29 02:22:23;;;;;;;;;;;;;;;23.22;48.77;100557.72;7400761;19;1453;-41
2023/07/29 02:24:51;;;;;;;;;;;;;;;23.21;48.74;100558.72;7399224;19;1828;-41
2023/07/29 02:27:19;;;;;;;;;;;;;;;23.21;48.84;100553.34;7401904;19;1932;-42
2023/07/29 02:29:48;;;;;;;;;;;;;;;23.22;48.72;100557.72;7400817;19;1509;-42
2023/07/29 02:32:18;;;;;;;;;;;;;;;23.17;49.05;100563.63;7402362;19;1294;-41
2023/07/29 02:34:47;;;;;;;;;;;;;;;23.17;48.77;100569.00;7401088;19;1235;-41
2023/07/29 02:37:15;;;;;;;;;;;;;;;23.18;48.87;100564.47;7401063;19;1537;-41
2023/07/29 02:39:43;;;;;;;;;;;;;;;23.23;48.70;100567.50;7397897;19;1197;-41
2023/07/29 02:42:12;;;;;;;;;;;;;;;23.20;48.96;100567.84;7399005;19;1352;-41
2023/07/29 02:44:40;;;;;;;;;;;;;;;23.16;48.88;100577.28;7399378;19;1862;-41
2023/07/29 02:47:08;;;;;;;;;;;;;;;23.15;48.88;100570.19;7399907;19;1448;-41
2023/07/29 02:49:39;;;;;;;;;;;;;;;23.16;48.46;100571.91;7401486;19;1159;-41
2023/07/29 02:52:08;;;;;;;;;;;;;;;23.21;48.08;100574.91;7401789;19;1294;-41
2023/07/29 02:54:36;;;;;;;;;;;;;;;23.14;48.30;100590.06;7400891;19;1850;-41
2023/07/29 02:57:04;;;;;;;;;;;;;;;23.15;48.60;100586.38;7399616;19;1441;-41
2023/07/29 02:59:32;;;;;;;;;;;;;;;23.11;48.42;100587.72;7400111;19;1458;-41
2023/07/29 03:02:01;;;;;;;;;;;;;;;23.13;48.47;100589.25;7399455;19;1280;-41
2023/07/29 03:04:29;;;;;;;;;;;;;;;23.16;48.46;100604.28;7399640;19;1843;-41
2023/07/29 03:07:01;;;;;;;;;;;;;;;23.13;48.61;100608.13;7398726;19;1246;-41
2023/07/29 03:09:29;;;;;;;;;;;;;;;23.13;48.57;100615.38;7399573;19;1938;-41
2023/07/29 03:11:58;;;;;;;;;;;;;;;23.19;48.54;100625.50;7399175;19;1331;-41
2023/07/29 03:14:27;;;;;;;;;;;;;;;23.08;48.64;100612.31;7399426;19;1482;-41
2023/07/29 03:16:55;;;;;;;;;;;;;;;23.06;48.48;100604.41;7399265;19;1151;-41
2023/07/29 03:19:23;;;;;;;;;;;;;;;23.11;48.83;100630.88;7396454;19;1255;-41
2023/07/29 03:21:52;;;;;;;;;;;;;;;23.14;48.94;100630.53;7397283;19;1390;-41
2023/07/29 03:24:23;;;;;;;;;;;;;;;23.11;49.00;100626.31;7397911;19;1841;-41
2023/07/29 03:26:51;;;;;;;;;;;;;;;23.19;48.66;100636.28;7398435;19;1230;-41
2023/07/29 03:29:19;;;;;;;;;;;;;;;23.22;48.15;100634.09;7398795;19;1391;-41
2023/07/29 03:31:47;;;;;;;;;;;;;;;23.19;48.44;100639.00;7397670;19;1406;-41
2023/07/29 03:34:16;;;;;;;;;;;;;;;23.25;48.17;100641.00;7398164;19;1460;-41
2023/07/29 03:36:45;;;;;;;;;;;;;;;23.21;48.05;100645.06;7396747;19;1214;-41
2023/07/29 03:39:14;;;;;;;;;;;;;;;23.21;48.15;100645.06;7398404;19;1469;-41
2023/07/29 03:41:45;;;;;;;;;;;;;;;23.16;48.55;100633.94;7397555;19;1593;-41
2023/07/29 03:44:13;;;;;;;;;;;;;;;23.13;48.17;100636.97;7397277;19;1849;-41
2023/07/29 03:46:41;;;;;;;;;;;;;;;23.10;48.06;100637.28;7398475;19;1202;-41
2023/07/29 03:49:09;;;;;;;;;;;;;;;23.16;47.95;100639.34;7397579;19;1577;-41
2023/07/29 03:51:38;;;;;;;;;;;;;;;23.16;48.18;100620.44;7397832;19;1431;-41
2023/07/29 03:54:06;;;;;;;;;;;;;;;23.14;47.86;100633.22;7396581;19;1310;-41
2023/07/29 03:56:35;;;;;;;;;;;;;;;23.26;47.82;100637.31;7398326;19;1465;-41
2023/07/29 03:59:08;;;;;;;;;;;;;;;22.88;47.61;100574.88;7398059;19;1256;-41
2023/07/29 04:01:36;;;;;;;;;;;;;;;23.29;47.55;100636.97;7397753;19;1293;-41
2023/07/29 04:04:04;;;;;;;;;;;;;;;23.33;47.36;100645.59;7397132;19;1879;-41
2023/07/29 04:06:33;;;;;;;;;;;;;;;23.37;47.52;100628.03;7397348;19;1499;-41
2023/07/29 04:09:01;;;;;;;;;;;;;;;23.35;48.13;100624.66;7396818;19;1165;-41
2023/07/29 04:11:29;;;;;;;;;;;;;;;23.37;47.62;100626.19;7397123;19;1292;-41
2023/07/29 04:13:57;;;;;;;;;;;;;;;23.50;47.33;100619.47;7397804;19;1214;-41
2023/07/29 04:16:29;;;;;;;;;;;;;;;23.57;46.90;100618.59;7397167;19;1649;-41
2023/07/29 04:18:57;;;;;;;;;;;;;;;23.55;48.43;100622.47;7394525;19;1189;-40
2023/07/29 04:21:25;;;;;;;;;;;;;;;23.86;47.52;100632.63;7395444;19;1502;-41
2023/07/29 04:23:54;;;;;;;;;;;;;;;23.87;47.17;100628.91;7396596;19;1312;-41
2023/07/29 04:26:22;;;;;;;;;;;;;;;23.78;47.38;100615.41;7396530;19;1845;-41
2023/07/29 04:28:50;;;;;;;;;;;;;;;23.82;47.21;100621.31;7396578;19;1173;-41
2023/07/29 04:31:18;;;;;;;;;;;;;;;23.84;46.95;100619.28;7396591;19;1589;-41
2023/07/29 04:33:49;;;;;;;;;;;;;;;23.90;47.16;100618.59;7396234;19;1423;-41
2023/07/29 04:36:18;;;;;;;;;;;;;;;23.84;47.20;100626.56;7398525;19;1268;-41
2023/07/29 04:38:46;;;;;;;;;;;;;;;23.86;46.93;100621.81;7396877;19;1485;-41
2023/07/29 04:41:14;;;;;;;;;;;;;;;23.73;46.82;100623.13;7395357;19;1272;-41
2023/07/29 04:43:43;;;;;;;;;;;;;;;23.63;47.27;100617.94;7395427;19;1211;-41
2023/07/29 04:46:11;;;;;;;;;;;;;;;23.59;47.20;100623.81;7394013;19;2218;-41
2023/07/29 04:48:39;;;;;;;;;;;;;;;23.72;46.72;100626.88;7395476;19;1541;-41
2023/07/29 04:51:10;;;;;;;;;;;;;;;23.55;47.45;100622.47;7395154;19;1530;-41
2023/07/29 04:53:38;;;;;;;;;;;;;;;23.60;47.29;100622.84;7395334;19;1406;-41
2023/07/29 04:56:07;;;;;;;;;;;;;;;23.88;46.41;100619.81;7395166;19;1432;-41
2023/07/29 04:58:35;;;;;;;;;;;;;;;23.77;47.21;100631.75;7396290;19;1204;-41
2023/07/29 05:01:04;;;;;;;;;;;;;;;23.46;47.30;100624.34;7393987;19;1556;-41
2023/07/29 05:03:32;;;;;;;;;;;;;;;23.50;47.38;100630.25;7394931;19;1170;-41
2023/07/29 05:06:01;;;;;;;;;;;;;;;23.65;47.63;100639.34;7392929;19;1849;-41
2023/07/29 05:08:32;;;;;;;;;;;;;;;23.95;47.45;100639.69;7393900;19;1464;-41
2023/07/29 05:11:00;;;;;;;;;;;;;;;24.21;46.98;100624.09;7394794;19;1213;-41
2023/07/29 05:13:28;;;;;;;;;;;;;;;24.25;46.62;100627.28;7394714;19;1236;-41
2023/07/29 05:15:56;;;;;;;;;;;;;;;24.15;47.49;100641.03;7395855;19;1469;-40
2023/07/29 05:18:25;;;;;;;;;;;;;;;24.24;48.27;100641.00;7394794;19;1544;-41
2023/07/29 05:20:53;;;;;;;;;;;;;;;24.30;48.57;100632.19;7389020;19;1524;-44
2023/07/29 05:23:21;;;;;;;;;;;;;;;24.58;47.78;100638.84;7393733;19;1280;-42
2023/07/29 05:25:52;;;;;;;;;;;;;;;24.61;47.79;100643.94;7390562;19;1868;-42
2023/07/29 05:28:20;;;;;;;;;;;;;;;24.42;49.01;100645.13;7394818;19;1243;-42
2023/07/29 05:30:49;;;;;;;;;;;;;;;24.55;49.12;100649.16;7401704;19;1517;-42
2023/07/29 05:33:17;;;;;;;;;;;;;;;24.60;47.60;100661.16;7402686;19;1539;-42
2023/07/29 05:35:47;;;;;;;;;;;;;;;24.63;47.39;100651.88;7401101;19;1177;-41
2023/07/29 05:38:15;;;;;;;;;;;;;;;24.57;48.58;100663.34;7401117;19;1231;-41
2023/07/29 05:40:43;;;;;;;;;;;;;;;24.63;49.13;100657.28;7401768;19;1519;-41
2023/07/29 05:43:14;;;;;;;;;;;;;;;24.88;48.76;100657.16;7401470;19;1497;-41
2023/07/29 05:45:43;;;;;;;;;;;;;;;24.93;48.99;100658.31;7399566;19;1837;-40
2023/07/29 05:48:11;;;;;;;;;;;;;;;24.88;48.74;100649.88;7400631;19;1519;-41
2023/07/29 05:50:39;;;;;;;;;;;;;;;24.91;48.87;100641.41;7401564;19;1415;-41
2023/07/29 05:53:07;;;;;;;;;;;;;;;24.99;48.13;100643.22;7401942;19;1155;-41
2023/07/29 05:55:36;;;;;;;;;;;;;;;25.07;49.95;100642.31;7402247;19;1424;-41
2023/07/29 05:58:04;;;;;;;;;;;;;;;25.39;48.77;100642.13;7401392;19;1165;-41
2023/07/29 06:00:35;;;;;;;;;;;;;;;25.24;49.41;100648.50;7401031;19;1549;-41
2023/07/29 06:03:03;;;;;;;;;;;;;;;25.26;52.94;100651.88;7401346;19;1163;-42
2023/07/29 06:05:32;;;;;;;;;;;;;;;25.31;52.13;100654.91;7399796;19;1848;-41
2023/07/29 06:08:00;;;;;;;;;;;;;;;25.75;51.88;100652.31;7401820;19;1258;-42
2023/07/29 06:10:30;;;;;;;;;;;;;;;25.80;51.55;100640.94;7402202;19;1203;-41
2023/07/29 06:12:58;;;;;;;;;;;;;;;25.52;51.14;100629.84;7400904;19;1251;-41
2023/07/29 06:15:26;;;;;;;;;;;;;;;25.44;52.45;100643.44;7399820;19;1565;-41
2023/07/29 06:17:57;;;;;;;;;;;;;;;25.34;51.79;100641.81;7400591;19;1407;-41
2023/07/29 06:20:25;;;;;;;;;;;;;;;25.50;50.90;100648.97;7397767;19;2150;-41
2023/07/29 06:22:54;;;;;;;;;;;;;;;25.35;51.11;100632.69;7398788;19;1929;-41
2023/07/29 06:25:22;;;;;;;;;;;;;;;25.32;51.65;100624.09;7396132;19;1841;-41
2023/07/29 06:27:50;;;;;;;;;;;;;;;25.17;51.74;100651.91;7393886;19;1379;-42
2023/07/29 06:30:19;;;;;;;;;;;;;;;24.92;48.53;100632.25;7399351;19;1491;-42
2023/07/29 06:32:48;;;;;;;;;;;;;;;24.63;49.92;100634.78;7399863;19;1330;-41
2023/07/29 06:35:19;;;;;;;;;;;;;;;24.47;50.01;100631.13;7401117;19;1228;-41
2023/07/29 06:37:47;;;;;;;;;;;;;;;24.32;50.65;100635.56;7400643;19;1305;-41
2023/07/29 06:40:15;;;;;;;;;;;;;;;24.05;51.04;100648.44;7399851;19;1562;-41
2023/07/29 06:42:44;;;;;;;;;;;;;;;23.92;51.19;100640.03;7400148;19;1655;-41
2023/07/29 06:45:12;;;;;;;;;;;;;;;23.95;51.00;100658.59;7399552;19;1853;-41
2023/07/29 06:47:41;;;;;;;;;;;;;;;23.87;51.76;100647.81;7400843;19;1218;-41
2023/07/29 06:50:09;;;;;;;;;;;;;;;23.82;52.78;100651.84;7396214;19;1579;-41
2023/07/29 06:52:40;;;;;;;;;;;;;;;23.74;53.53;100637.50;7398190;19;1535;-41
2023/07/29 06:55:09;;;;;;;;;;;;;;;23.78;53.88;100636.19;7397542;19;1439;-41
2023/07/29 06:57:37;;;;;;;;;;;;;;;23.85;53.71;100630.94;7399143;19;1290;-41
2023/07/29 07:00:06;;;;;;;;;;;;;;;23.93;53.95;100645.25;7397095;19;1371;-41
2023/07/29 07:02:34;;;;;;;;;;;;;;;23.99;53.67;100635.63;7396097;19;1464;-41
2023/07/29 07:05:03;;;;;;;;;;;;;;;23.92;53.86;100648.97;7397855;19;1849;-41
2023/07/29 07:07:31;;;;;;;;;;;;;;;24.01;53.94;100636.28;7395487;19;1402;-41
2023/07/29 07:10:02;;;;;;;;;;;;;;;23.97;53.98;100632.25;7395046;19;1359;-41
2023/07/29 07:12:30;;;;;;;;;;;;;;;23.96;54.00;100641.38;7396895;19;1424;-41
2023/07/29 07:14:58;;;;;;;;;;;;;;;23.87;54.05;100639.69;7395539;19;1454;-41
2023/07/29 07:17:27;;;;;;;;;;;;;;;23.79;54.36;100665.69;7394505;19;1469;-41
2023/07/29 07:19:55;;;;;;;;;;;;;;;23.68;53.57;100636.31;7394035;19;1153;-41
2023/07/29 07:22:23;;;;;;;;;;;;;;;23.65;53.34;100635.81;7397705;19;1528;-41
2023/07/29 07:24:52;;;;;;;;;;;;;;;23.66;53.82;100635.66;7395747;19;1855;-41
2023/07/29 07:27:23;;;;;;;;;;;;;;;23.66;54.78;100629.41;7395084;19;1858;-41
2023/07/29 07:29:51;;;;;;;;;;;;;;;23.75;54.49;100625.69;7398138;19;1401;-41
2023/07/29 07:32:19;;;;;;;;;;;;;;;23.81;53.70;100625.03;7397629;19;1941;-41
2023/07/29 07:34:47;;;;;;;;;;;;;;;23.82;53.98;100632.97;7397285;19;1239;-41
2023/07/29 07:37:16;;;;;;;;;;;;;;;23.87;53.63;100623.50;7397554;19;1485;-41
2023/07/29 07:39:44;;;;;;;;;;;;;;;23.94;53.73;100625.34;7396559;19;1397;-41
2023/07/29 07:42:12;;;;;;;;;;;;;;;23.82;53.87;100624.03;7395065;19;1508;-41
2023/07/29 07:44:43;;;;;;;;;;;;;;;23.79;53.67;100622.47;7398646;19;1595;-41
2023/07/29 07:47:11;;;;;;;;;;;;;;;23.80;53.55;100607.97;7397056;19;1850;-41
2023/07/29 07:49:40;;;;;;;;;;;;;;;23.88;52.86;100620.63;7400061;19;1243;-42
2023/07/29 07:52:08;;;;;;;;;;;;;;;23.86;52.15;100616.44;7398431;19;1322;-41
2023/07/29 07:54:36;;;;;;;;;;;;;;;23.89;52.38;100624.16;7398134;19;1739;-41
2023/07/29 07:57:05;;;;;;;;;;;;;;;23.74;52.10;100619.44;7398607;19;1968;-41
2023/07/29 07:59:33;;;;;;;;;;;;;;;23.56;52.09;100632.28;7397487;19;1622;-41
2023/07/29 08:02:04;;;;;;;;;;;;;;;23.55;52.92;100609.81;7398429;19;1603;-41
2023/07/29 08:04:32;;;;;;;;;;;;;;;23.59;52.17;100610.34;7399111;19;1307;-42
2023/07/29 08:07:00;;;;;;;;;;;;;;;23.75;51.52;100607.59;7393855;19;1842;-41
2023/07/29 08:09:29;;;;;;;;;;;;;;;23.79;51.05;100627.88;7396882;19;1517;-41
2023/07/29 08:11:57;;;;;;;;;;;;;;;23.79;51.08;100602.75;7398570;19;1604;-42
2023/07/29 08:14:26;;;;;;;;;;;;;;;23.76;51.29;100593.09;7398121;19;1292;-57
2023/07/29 08:16:54;;;;;;;;;;;;;;;23.87;50.36;100600.03;7395195;19;1862;-41
2023/07/29 08:19:25;;;;;;;;;;;;;;;23.92;51.44;100594.13;7394449;19;1498;-42
2023/07/29 08:21:54;;;;;;;;;;;;;;;23.96;51.26;100592.78;7394618;19;1599;-41
2023/07/29 08:24:22;;;;;;;;;;;;;;;23.97;52.48;100599.84;7398059;19;1504;-42
2023/07/29 08:26:50;;;;;;;;;;;;;;;23.96;53.48;100593.59;7396225;19;1879;-42
2023/07/29 08:29:18;;;;;;;;;;;;;;;23.97;54.45;100598.00;7397200;19;1561;-41
2023/07/29 08:31:47;;;;;;;;;;;;;;;23.95;54.57;100604.56;7398784;19;1335;-42
2023/07/29 08:34:15;;;;;;;;;;;;;;;24.10;54.80;100592.06;7397151;19;1862;-42
2023/07/29 08:36:46;;;;;;;;;;;;;;;24.06;56.57;100606.91;7396445;19;1377;-42
2023/07/29 08:39:14;;;;;;;;;;;;;;;24.09;58.02;100589.50;7395256;19;1398;-41
2023/07/29 08:41:46;;;;;;;;;;;;;;;24.19;58.55;100595.56;7395594;19;1467;-41
2023/07/29 08:44:17;;;;;;;;;;;;;;;24.13;58.87;100599.81;7395439;19;1275;-42
2023/07/29 08:46:45;;;;;;;;;;;;;;;24.17;58.29;100586.78;7396521;19;1861;-41
2023/07/29 08:49:14;;;;;;;;;;;;;;;24.22;57.59;100587.13;7396647;19;1591;-42
2023/07/29 08:51:44;;;;;;;;;;;;;;;24.24;57.93;100585.09;7396596;19;1906;-41
2023/07/29 08:54:16;;;;;;;;;;;;;;;24.14;58.48;100593.38;7395975;19;1563;-39
2023/07/29 08:56:45;;;;;;;;;;;;;;;24.05;58.77;100578.22;7396192;19;1173;-40
2023/07/29 08:59:13;;;;;;;;;;;;;;;24.27;58.16;100590.13;7397118;19;1630;-39
2023/07/29 09:01:42;;;;;;;;;;;;;;;23.99;59.51;100578.91;7396358;19;1989;-39
2023/07/29 09:04:10;;;;;;;;;;;;;;;24.06;58.86;100566.41;7394948;19;1516;-39
2023/07/29 09:06:38;;;;;;;;;;;;;;;24.18;58.60;100551.50;7393336;19;1837;-40
2023/07/29 09:09:07;;;;;;;;;;;;;;;24.15;58.94;100573.47;7397639;19;1400;-39
2023/07/29 09:11:38;;;;;;;;;;;;;;;23.99;58.80;100562.69;7396543;19;2027;-39
2023/07/29 09:14:06;;;;;;;;;;;;;;;23.98;58.90;100561.03;7396027;19;1291;-39
2023/07/29 09:16:35;;;;;;;;;;;;;;;24.02;59.95;100556.97;7395529;19;1542;-39
2023/07/29 09:19:03;;;;;;;;;;;;;;;24.13;60.45;100556.59;7395977;19;1379;-39
2023/07/29 09:21:32;;;;;;;;;;;;;;;24.06;60.72;100561.00;7395112;19;1585;-39
2023/07/29 09:24:05;;;;;;;;;;;;;;;24.12;60.16;100552.19;7394328;19;1287;-39
2023/07/29 09:26:33;;;;;;;;;;;;;;;24.02;60.33;100559.66;7391863;19;1848;-39
2023/07/29 09:29:04;;;;;;;;;;;;;;;23.99;60.53;100557.28;7394685;19;1386;-39
2023/07/29 09:31:33;;;;;;;;;;;;;;;24.08;60.49;100550.88;7395945;19;1190;-39
2023/07/29 09:34:02;;;;;;;;;;;;;;;24.10;60.48;100546.13;7394697;19;1466;-40
2023/07/29 09:36:33;;;;;;;;;;;;;;;24.02;60.61;100548.84;7328525;19;12747;-41
2023/07/29 09:39:01;;;;;;;;;;;;;;;23.92;60.05;100545.53;7394881;19;1449;-42
2023/07/29 09:41:30;;;;;;;;;;;;;;;23.96;60.14;100552.25;7393588;19;1194;-40
2023/07/29 09:44:00;;;;;;;;;;;;;;;24.01;59.44;100544.47;7394433;19;1187;-40
2023/07/29 09:46:35;;;;;;;;;;;;;;;24.07;58.43;100561.84;7393069;19;1855;-41
2023/07/29 09:49:04;;;;;;;;;;;;;;;23.94;58.19;100529.97;7391261;19;1220;-40
2023/07/29 09:51:32;;;;;;;;;;;;;;;23.86;57.99;100549.75;7391002;19;1565;-40
2023/07/29 09:54:05;;;;;;;;;;;;;;;23.86;57.85;100540.81;7388532;19;1402;-41
2023/07/29 09:56:33;;;;;;;;;;;;;;;23.83;58.58;100568.97;6866986;19;10000562;-41
2023/07/29 09:59:01;;;;;;;;;;;;;;;23.89;58.63;100562.06;7379458;19;1854;-40
2023/07/29 10:01:34;;;;;;;;;;;;;;;23.90;57.69;100548.38;7384725;19;1343;-40
2023/07/29 10:04:03;;;;;;;;;;;;;;;23.91;56.96;100550.06;7383005;19;1703;-40
2023/07/29 10:06:31;;;;;;;;;;;;;;;23.93;56.55;100544.50;7380952;19;1877;-40
2023/07/29 10:09:00;;;;;;;;;;;;;;;23.82;56.81;100551.94;7381297;19;1431;-40
2023/07/29 10:11:28;;;;;;;;;;;;;;;23.63;57.60;100542.34;7381641;19;1392;-41
2023/07/29 10:13:57;;;;;;;;;;;;;;;23.66;57.89;100533.06;7383977;19;1458;-40
2023/07/29 10:16:26;;;;;;;;;;;;;;;23.87;57.32;100528.97;7387513;19;1482;-41
2023/07/29 10:18:58;;;;;;;;;;;;;;;23.84;57.64;100534.75;7391558;19;1593;-41
2023/07/29 10:21:26;;;;;;;;;;;;;;;23.84;58.04;100532.03;7390711;19;1411;-40
2023/07/29 10:23:56;;;;;;;;;;;;;;;24.00;57.42;100531.97;7394303;19;1621;-41
2023/07/29 10:26:25;;;;;;;;;;;;;;;24.01;57.17;100533.66;7394466;19;1839;-41
2023/07/29 10:28:55;;;;;;;;;;;;;;;23.87;57.61;100523.59;7389400;19;1418;-40
2023/07/29 10:31:25;;;;;;;;;;;;;;;23.74;59.17;100524.94;7392137;19;1567;-40
2023/07/29 10:33:53;;;;;;;;;;;;;;;23.82;60.08;100524.94;7392046;19;1645;-40
2023/07/29 10:36:24;;;;;;;;;;;;;;;23.86;59.74;100530.00;7395199;19;1533;-41
2023/07/29 10:38:52;;;;;;;;;;;;;;;24.01;59.28;100523.72;7395820;19;1527;-41
2023/07/29 10:41:21;;;;;;;;;;;;;;;24.03;59.23;100520.81;7394377;19;1847;-47
2023/07/29 10:43:49;;;;;;;;;;;;;;;24.06;59.25;100533.16;7392834;19;1872;-41
2023/07/29 10:46:18;;;;;;;;;;;;;;;24.03;59.72;100515.41;7393132;19;1847;-41
2023/07/29 10:48:54;;;;;;;;;;;;;;;24.04;59.69;100516.28;7393401;19;1743;-40
2023/07/29 10:51:32;;;;;;;;;;;;;;;23.93;60.30;100499.41;7393553;19;1672;-41
2023/07/29 10:54:02;;;;;;;;;;;;;;;24.00;60.21;100513.91;7393386;19;1871;-41
2023/07/29 10:56:32;;;;;;;;;;;;;;;23.94;60.61;100498.41;7391699;19;2413;-41
2023/07/29 10:59:01;;;;;;;;;;;;;;;24.04;60.50;100498.22;7392997;19;1662;-40
2023/07/29 11:01:30;;;;;;;;;;;;;;;23.95;61.09;100496.53;7394531;19;1814;-40
2023/07/29 11:04:13;;;;;;;;;;;;;;;23.93;60.16;100495.88;7392190;19;1565;-41
2023/07/29 11:06:56;;;;;;;;;;;;;;;23.86;60.15;100497.59;7390560;19;1934;-40
2023/07/29 11:09:39;;;;;;;;;;;;;;;23.82;61.58;100494.41;7390569;19;1528;-40
2023/07/29 11:12:31;;;;;;;;;;;;;;;23.89;61.83;100497.25;7394029;19;2105;-41
2023/07/29 11:14:59;;;;;;;;;;;;;;;23.86;62.03;100506.53;7391543;19;1851;-40
2023/07/29 11:17:27;;;;;;;;;;;;;;;23.88;62.16;100503.69;7393022;19;1646;-41
2023/07/29 11:19:57;;;;;;;;;;;;;;;23.89;61.81;100502.66;7388997;19;1534;-41
2023/07/29 11:22:26;;;;;;;;;;;;;;;23.89;60.32;100489.16;7391632;19;1430;-41
2023/07/29 11:24:55;;;;;;;;;;;;;;;24.02;60.61;100501.06;7393029;19;1384;-40
2023/07/29 11:27:26;;;;;;;;;;;;;;;24.02;60.57;100497.53;7391630;19;1843;-41
2023/07/29 11:29:59;;;;;;;;;;;;;;;23.97;60.87;100484.56;7392752;19;1840;-40
2023/07/29 11:32:28;;;;;;;;;;;;;;;23.97;60.74;100478.31;7391568;19;1833;-41
2023/07/29 11:34:56;;;;;;;;;;;;;;;24.02;60.95;100473.22;7392004;19;1748;-41
2023/07/29 11:37:25;;;;;;;;;;;;;;;23.97;60.96;100483.69;7389343;19;1596;-41
2023/07/29 11:39:53;;;;;;;;;;;;;;;24.03;60.80;100483.00;7391938;19;1746;-40
2023/07/29 11:42:21;;;;;;;;;;;;;;;23.90;60.27;100471.94;7390335;19;1481;-40
2023/07/29 11:44:52;;;;;;;;;;;;;;;23.79;60.15;100465.88;7390724;19;1850;-40
2023/07/29 11:47:20;;;;;;;;;;;;;;;23.78;61.12;100475.00;7391259;19;1859;-40
2023/07/29 11:49:49;;;;;;;;;;;;;;;23.81;61.84;100463.88;7389814;19;2638;-40
2023/07/29 11:52:18;;;;;;;;;;;;;;;23.79;61.82;100471.28;7392000;19;1255;-40
2023/07/29 11:54:47;;;;;;;;;;;;;;;23.94;61.35;100460.59;7392753;19;1443;-41
2023/07/29 11:57:16;;;;;;;;;;;;;;;23.89;61.44;100444.06;7391026;19;1771;-41
2023/07/29 11:59:44;;;;;;;;;;;;;;;24.03;61.08;100445.19;7391002;19;1562;-40
2023/07/29 12:02:17;;;;;;;;;;;;;;;23.95;61.36;100451.47;7389148;19;1422;-41
2023/07/29 12:04:46;;;;;;;;;;;;;;;23.99;61.13;100481.66;7389637;19;1613;-41
2023/07/29 12:07:15;;;;;;;;;;;;;;;24.01;61.08;100449.91;7391833;19;1853;-41
2023/07/29 12:09:44;;;;;;;;;;;;;;;24.05;60.96;100437.75;7390119;19;1586;-43
2023/07/29 12:12:12;;;;;;;;;;;;;;;24.15;60.79;100453.72;7392552;19;1829;-40
2023/07/29 12:14:40;;;;;;;;;;;;;;;24.11;60.83;100431.63;7390318;19;1638;-41
2023/07/29 12:17:09;;;;;;;;;;;;;;;23.82;61.47;100433.13;7389362;19;1556;-40
2023/07/29 12:19:41;;;;;;;;;;;;;;;23.85;60.00;100436.50;7387922;19;1435;-41
2023/07/29 12:22:10;;;;;;;;;;;;;;;23.85;59.87;100439.19;7389554;19;1798;-41
2023/07/29 12:24:39;;;;;;;;;;;;;;;23.80;61.37;100432.47;7389981;19;1395;-41
2023/07/29 12:27:08;;;;;;;;;;;;;;;23.82;61.96;100433.13;7388631;19;1841;-40
2023/07/29 12:29:42;;;;;;;;;;;;;;;23.95;61.42;100434.41;7389755;19;1378;-40
2023/07/29 12:32:11;;;;;;;;;;;;;;;23.97;62.20;100435.94;7388259;19;1433;-41
2023/07/29 12:34:42;;;;;;;;;;;;;;;24.07;61.70;100433.00;7389057;19;1859;-40
2023/07/29 12:37:10;;;;;;;;;;;;;;;23.96;62.61;100418.06;7390085;19;1552;-41
2023/07/29 12:39:43;;;;;;;;;;;;;;;23.99;62.41;100433.06;7387195;19;1469;-41
2023/07/29 12:42:11;;;;;;;;;;;;;;;24.06;62.01;100419.69;7387952;19;1536;-41
2023/07/29 12:44:40;;;;;;;;;;;;;;;23.95;62.74;100424.44;7388028;19;1457;-41
2023/07/29 12:47:11;;;;;;;;;;;;;;;23.95;63.01;100429.84;7388452;19;1851;-41
2023/07/29 12:49:42;;;;;;;;;;;;;;;23.89;63.13;100416.22;7388780;19;2065;-41
2023/07/29 12:52:10;;;;;;;;;;;;;;;23.89;62.94;100419.75;7390455;19;1064;-40
2023/07/29 12:54:40;;;;;;;;;;;;;;;23.95;62.72;100420.91;7390234;19;1532;-40